createdAt,value
2023-05-05T00:00:16.616Z,94075.75
2023-05-05T00:01:10.077Z,94075.97
2023-05-05T00:01:43.613Z,94077.55
2023-05-05T00:02:18.104Z,94075.67
2023-05-05T00:02:51.709Z,94075.92
2023-05-05T00:03:26.632Z,94075.52
2023-05-05T00:04:00.368Z,94074.63
2023-05-05T00:04:33.956Z,94074.58
2023-05-05T00:05:08.447Z,94071.10
2023-05-05T00:05:42.643Z,94072.61
2023-05-05T00:06:16.493Z,94072.74
2023-05-05T00:06:51.091Z,94074.17
2023-05-05T00:07:24.864Z,94070.86
2023-05-05T00:07:59.432Z,94070.57
2023-05-05T00:08:33.469Z,94069.13
2023-05-05T00:09:07.541Z,94066.64
2023-05-05T00:09:41.876Z,94068.66
2023-05-05T00:10:15.948Z,94066.25
2023-05-05T00:10:50.949Z,94066.33
2023-05-05T00:11:28.418Z,94065.95
2023-05-05T00:12:51.093Z,94065.16
2023-05-05T00:14:36.036Z,94065.15
2023-05-05T00:16:12.157Z,94059.67
2023-05-05T00:17:48.579Z,94062.73
2023-05-05T00:19:16.264Z,94062.88
2023-05-05T00:21:04.635Z,94060.11
2023-05-05T00:21:37.965Z,94060.29
2023-05-05T00:22:11.956Z,94061.77
2023-05-05T00:22:45.110Z,94061.36
2023-05-05T00:23:20.007Z,94061.86
2023-05-05T00:23:53.588Z,94061.25
2023-05-05T00:24:26.864Z,94057.59
2023-05-05T00:25:00.161Z,94057.98
2023-05-05T00:25:33.741Z,94058.95
2023-05-05T00:26:07.043Z,94059.55
2023-05-05T00:26:40.185Z,94058.30
2023-05-05T00:27:13.450Z,94046.25
2023-05-05T00:27:46.941Z,94055.34
2023-05-05T00:28:20.212Z,94052.92
2023-05-05T00:28:53.560Z,94054.08
2023-05-05T00:29:26.896Z,94053.35
2023-05-05T00:30:01.711Z,94047.33
2023-05-05T00:30:35.242Z,94035.12
2023-05-05T00:31:08.804Z,94053.05
2023-05-05T00:31:42.420Z,94052.77
2023-05-05T00:32:15.842Z,94051.63
2023-05-05T00:32:51.314Z,94053.25
2023-05-05T00:33:24.699Z,94050.69
2023-05-05T00:33:57.922Z,94048.36
2023-05-05T00:34:31.177Z,94049.16
2023-05-05T00:35:06.900Z,94049.67
2023-05-05T00:35:40.624Z,94049.84
2023-05-05T00:36:15.026Z,94048.80
2023-05-05T00:36:48.693Z,94048.75
2023-05-05T00:37:22.013Z,94031.43
2023-05-05T00:37:55.564Z,94049.92
2023-05-05T00:38:29.038Z,94043.07
2023-05-05T00:39:02.434Z,94047.95
2023-05-05T00:39:35.811Z,94040.30
2023-05-05T00:40:10.714Z,94046.54
2023-05-05T00:40:44.012Z,94048.45
2023-05-05T00:41:17.628Z,94047.80
2023-05-05T00:41:50.899Z,94048.23
2023-05-05T00:42:24.755Z,94045.41
2023-05-05T00:42:59.713Z,94047.70
2023-05-05T00:43:33.074Z,94047.92
2023-05-05T00:44:06.515Z,94040.69
2023-05-05T00:44:41.718Z,94043.13
2023-05-05T00:45:15.962Z,94047.66
2023-05-05T00:46:02.565Z,94044.85
2023-05-05T00:46:36.112Z,94041.66
2023-05-05T00:47:09.822Z,94045.30
2023-05-05T00:47:52.506Z,94045.86
2023-05-05T00:48:26.888Z,94051.29
2023-05-05T00:49:01.526Z,94049.58
2023-05-05T00:49:36.009Z,94045.88
2023-05-05T00:50:10.123Z,94050.30
2023-05-05T00:50:45.014Z,94048.46
2023-05-05T00:51:19.095Z,94051.06
2023-05-05T00:51:52.600Z,94051.02
2023-05-05T00:52:26.604Z,94050.34
2023-05-05T00:53:04.776Z,94051.45
2023-05-05T00:53:41.464Z,94053.34
2023-05-05T00:54:14.924Z,94052.30
2023-05-05T00:54:48.505Z,94050.89
2023-05-05T00:55:22.325Z,94053.59
2023-05-05T00:55:55.653Z,94052.88
2023-05-05T00:56:28.970Z,94055.42
2023-05-05T00:57:05.567Z,94055.33
2023-05-05T00:57:38.948Z,94056.21
2023-05-05T00:58:13.497Z,94057.73
2023-05-05T00:58:47.089Z,94055.35
2023-05-05T00:59:21.273Z,94056.95
2023-05-05T00:59:56.070Z,94056.66
2023-05-05T01:00:30.280Z,94055.46
2023-05-05T01:01:04.009Z,94051.18
2023-05-05T01:01:37.633Z,94052.34
2023-05-05T01:02:10.946Z,94054.07
2023-05-05T01:02:45.000Z,94050.67
2023-05-05T01:03:19.211Z,94050.34
2023-05-05T01:03:53.597Z,94050.86
2023-05-05T01:04:28.114Z,94052.79
2023-05-05T01:05:03.817Z,94049.27
2023-05-05T01:05:56.035Z,94045.26
2023-05-05T01:06:49.143Z,94044.68
2023-05-05T01:07:22.560Z,94045.20
2023-05-05T01:08:21.133Z,94047.40
2023-05-05T01:09:12.348Z,94043.50
2023-05-05T01:10:20.756Z,94044.86
2023-05-05T01:11:03.413Z,94042.02
2023-05-05T01:11:52.035Z,94042.90
2023-05-05T01:12:37.695Z,94043.10
2023-05-05T01:13:29.064Z,94041.11
2023-05-05T01:14:19.144Z,94042.77
2023-05-05T01:15:12.683Z,94042.59
2023-05-05T01:16:10.868Z,94040.15
2023-05-05T01:16:59.535Z,94042.18
2023-05-05T01:17:42.661Z,94039.06
2023-05-05T01:18:24.750Z,94042.91
2023-05-05T01:19:07.072Z,94041.30
2023-05-05T01:19:58.182Z,94039.66
2023-05-05T01:20:41.491Z,94039.73
2023-05-05T01:21:29.222Z,94039.26
2023-05-05T01:22:07.300Z,94035.98
2023-05-05T01:22:45.851Z,94035.01
2023-05-05T01:23:36.853Z,94033.88
2023-05-05T01:24:47.751Z,94032.91
2023-05-05T01:25:56.842Z,94038.41
2023-05-05T01:26:43.408Z,94035.65
2023-05-05T01:27:59.528Z,94035.30
2023-05-05T01:28:50.088Z,94033.97
2023-05-05T01:29:48.451Z,94034.73
2023-05-05T01:30:55.378Z,94034.09
2023-05-05T01:31:44.864Z,94036.33
2023-05-05T01:32:25.216Z,94034.92
2023-05-05T01:33:04.302Z,94031.84
2023-05-05T01:33:46.473Z,94034.85
2023-05-05T01:34:43.172Z,94034.79
2023-05-05T01:35:27.407Z,94032.50
2023-05-05T01:36:06.151Z,94032.52
2023-05-05T01:36:44.427Z,94031.52
2023-05-05T01:37:24.792Z,94029.95
2023-05-05T01:38:09.878Z,94029.14
2023-05-05T01:38:46.107Z,94028.27
2023-05-05T01:39:22.205Z,94025.63
2023-05-05T01:39:59.505Z,94028.77
2023-05-05T01:40:38.496Z,94026.77
2023-05-05T01:41:16.199Z,94022.67
2023-05-05T01:41:53.915Z,94022.64
2023-05-05T01:42:29.609Z,94025.40
2023-05-05T01:43:06.568Z,94024.89
2023-05-05T01:43:41.636Z,94020.88
2023-05-05T01:44:16.947Z,94019.35
2023-05-05T01:44:53.430Z,94025.10
2023-05-05T01:45:32.353Z,94021.19
2023-05-05T01:46:07.981Z,94023.57
2023-05-05T01:46:41.496Z,94019.50
2023-05-05T01:47:20.192Z,94026.61
2023-05-05T01:47:56.213Z,94025.02
2023-05-05T01:48:33.729Z,94023.14
2023-05-05T01:50:46.958Z,94020.23
2023-05-05T01:51:24.734Z,94024.21
2023-05-05T01:51:59.155Z,94026.73
2023-05-05T01:52:34.399Z,94023.77
2023-05-05T01:53:09.811Z,94026.71
2023-05-05T01:53:43.979Z,94025.91
2023-05-05T01:54:18.887Z,94023.70
2023-05-05T01:54:53.528Z,94022.38
2023-05-05T01:55:29.968Z,94024.35
2023-05-05T01:56:04.083Z,94025.63
2023-05-05T01:56:40.516Z,94025.77
2023-05-05T01:57:15.346Z,94024.25
2023-05-05T01:57:50.523Z,94024.70
2023-05-05T01:58:26.361Z,94024.49
2023-05-05T01:59:02.099Z,94025.14
2023-05-05T01:59:38.262Z,94027.47
2023-05-05T02:00:12.320Z,94026.91
2023-05-05T02:00:49.883Z,94025.83
2023-05-05T02:01:26.178Z,94025.83
2023-05-05T02:02:02.994Z,94027.79
2023-05-05T02:02:39.161Z,94025.30
2023-05-05T02:03:14.987Z,94026.23
2023-05-05T02:03:51.479Z,94026.71
2023-05-05T02:04:28.370Z,94027.13
2023-05-05T02:05:05.392Z,94027.83
2023-05-05T02:05:40.288Z,94024.62
2023-05-05T02:06:16.734Z,94024.63
2023-05-05T02:06:53.318Z,94027.75
2023-05-05T02:07:28.330Z,94022.95
2023-05-05T02:08:04.359Z,94027.11
2023-05-05T02:08:39.727Z,94024.55
2023-05-05T02:09:14.659Z,94029.11
2023-05-05T02:09:49.013Z,94026.63
2023-05-05T02:10:22.423Z,94026.42
2023-05-05T02:10:56.501Z,94025.11
2023-05-05T02:11:30.192Z,94024.17
2023-05-05T02:12:04.925Z,94025.46
2023-05-05T02:12:41.396Z,94026.45
2023-05-05T02:13:18.422Z,94022.69
2023-05-05T02:13:53.445Z,94027.02
2023-05-05T02:14:29.747Z,94027.46
2023-05-05T02:15:04.098Z,94024.17
2023-05-05T02:15:38.405Z,94026.70
2023-05-05T02:16:13.512Z,94019.96
2023-05-05T02:16:47.525Z,94025.48
2023-05-05T02:17:23.265Z,94029.15
2023-05-05T02:17:58.363Z,94027.59
2023-05-05T02:18:35.917Z,94027.95
2023-05-05T02:19:09.604Z,94031.31
2023-05-05T02:19:46.050Z,94030.63
2023-05-05T02:20:20.646Z,94032.15
2023-05-05T02:20:54.627Z,94030.67
2023-05-05T02:21:28.812Z,94030.83
2023-05-05T02:22:02.802Z,94033.29
2023-05-05T02:22:36.412Z,94033.39
2023-05-05T02:23:10.048Z,94034.38
2023-05-05T02:23:48.430Z,94032.09
2023-05-05T02:24:22.036Z,94033.86
2023-05-05T02:24:55.707Z,94036.19
2023-05-05T02:25:38.652Z,94033.48
2023-05-05T02:26:14.224Z,94033.09
2023-05-05T02:26:50.508Z,94034.58
2023-05-05T02:27:25.414Z,94030.92
2023-05-05T02:28:01.037Z,94033.55
2023-05-05T02:28:56.217Z,94033.40
2023-05-05T02:29:34.858Z,94031.27
2023-05-05T02:30:11.500Z,94032.64
2023-05-05T02:30:50.477Z,94035.09
2023-05-05T02:31:27.585Z,94033.04
2023-05-05T02:32:07.068Z,94034.14
2023-05-05T02:32:45.415Z,94032.70
2023-05-05T02:33:21.645Z,94034.71
2023-05-05T02:33:58.139Z,94034.31
2023-05-05T02:34:36.903Z,94035.72
2023-05-05T02:35:22.898Z,94034.70
2023-05-05T02:35:57.701Z,94035.72
2023-05-05T02:36:36.947Z,94034.92
2023-05-05T02:37:13.036Z,94036.36
2023-05-05T02:38:02.713Z,94034.73
2023-05-05T02:38:43.309Z,94034.91
2023-05-05T02:39:25.249Z,94035.08
2023-05-05T02:40:02.880Z,94036.00
2023-05-05T02:40:40.872Z,94033.11
2023-05-05T02:41:19.191Z,94032.70
2023-05-05T02:41:55.570Z,94030.87
2023-05-05T02:42:38.843Z,94030.63
2023-05-05T02:43:19.990Z,94030.86
2023-05-05T02:43:55.696Z,94028.90
2023-05-05T02:44:32.114Z,94028.30
2023-05-05T02:45:11.533Z,94027.27
2023-05-05T02:45:46.486Z,94029.77
2023-05-05T02:46:20.145Z,94028.44
2023-05-05T02:46:54.963Z,94029.95
2023-05-05T02:47:37.810Z,94028.03
2023-05-05T02:48:13.295Z,94030.20
2023-05-05T02:48:46.854Z,94029.95
2023-05-05T02:49:20.272Z,94031.84
2023-05-05T02:49:54.615Z,94028.88
2023-05-05T02:50:27.872Z,94029.71
2023-05-05T02:51:07.997Z,94029.52
2023-05-05T02:51:43.026Z,94028.36
2023-05-05T02:52:23.057Z,94029.92
2023-05-05T02:52:56.663Z,94031.13
2023-05-05T02:53:30.438Z,94030.95
2023-05-05T02:54:04.720Z,94032.80
2023-05-05T02:54:38.113Z,94028.33
2023-05-05T02:55:16.136Z,94031.55
2023-05-05T02:55:53.986Z,94026.96
2023-05-05T02:56:48.281Z,94030.36
2023-05-05T02:57:31.776Z,94026.30
2023-05-05T02:58:08.986Z,94030.15
2023-05-05T02:59:15.335Z,94032.45
2023-05-05T03:00:08.586Z,94028.46
2023-05-05T03:00:45.898Z,94029.83
2023-05-05T03:01:51.586Z,94028.28
2023-05-05T03:02:35.730Z,94029.85
2023-05-05T03:03:22.450Z,94030.58
2023-05-05T03:04:17.845Z,94032.33
2023-05-05T03:05:04.637Z,94029.77
2023-05-05T03:05:46.015Z,94032.53
2023-05-05T03:06:25.232Z,94029.89
2023-05-05T03:07:04.336Z,94032.45
2023-05-05T03:07:53.800Z,94028.69
2023-05-05T03:08:35.279Z,94030.05
2023-05-05T03:09:33.346Z,94027.21
2023-05-05T03:10:14.050Z,94031.53
2023-05-05T03:11:05.324Z,94029.10
2023-05-05T03:11:46.693Z,94030.00
2023-05-05T03:12:26.413Z,94029.07
2023-05-05T03:13:10.610Z,94029.27
2023-05-05T03:13:56.506Z,94029.31
2023-05-05T03:14:41.262Z,94031.20
2023-05-05T03:15:15.525Z,94030.70
2023-05-05T03:15:52.751Z,94033.09
2023-05-05T03:16:29.963Z,94028.85
2023-05-05T03:17:04.381Z,94028.77
2023-05-05T03:17:39.886Z,94033.17
2023-05-05T03:18:15.879Z,94031.05
2023-05-05T03:18:52.757Z,94030.37
2023-05-05T03:19:28.048Z,94031.94
2023-05-05T03:20:06.074Z,94037.10
2023-05-05T03:20:41.102Z,94037.10
2023-05-05T03:21:15.991Z,94033.73
2023-05-05T03:21:49.588Z,94035.22
2023-05-05T03:22:23.266Z,94038.78
2023-05-05T03:22:57.500Z,94039.87
2023-05-05T03:23:33.037Z,94038.77
2023-05-05T03:24:17.193Z,94038.80
2023-05-05T03:24:53.412Z,94038.39
2023-05-05T03:25:45.871Z,94040.83
2023-05-05T03:26:25.076Z,94038.86
2023-05-05T03:26:58.416Z,94038.22
2023-05-05T03:27:35.034Z,94039.02
2023-05-05T03:28:08.468Z,94042.66
2023-05-05T03:28:42.012Z,94040.20
2023-05-05T03:29:23.368Z,94040.29
2023-05-05T03:29:56.997Z,94042.21
2023-05-05T03:30:30.895Z,94042.85
2023-05-05T03:31:04.604Z,94038.05
2023-05-05T03:31:38.221Z,94045.77
2023-05-05T03:32:14.383Z,94047.13
2023-05-05T03:32:47.783Z,94046.38
2023-05-05T03:33:21.194Z,94044.73
2023-05-05T03:33:54.482Z,94051.49
2023-05-05T03:34:29.024Z,94045.94
2023-05-05T03:35:03.468Z,94045.89
2023-05-05T03:35:38.454Z,94047.21
2023-05-05T03:36:13.165Z,94047.38
2023-05-05T03:36:46.530Z,94046.22
2023-05-05T03:37:20.952Z,94045.95
2023-05-05T03:37:57.090Z,94047.63
2023-05-05T03:38:30.366Z,94050.63
2023-05-05T03:39:04.165Z,94049.02
2023-05-05T03:39:38.705Z,94051.98
2023-05-05T03:40:13.242Z,94047.45
2023-05-05T03:40:47.534Z,94054.57
2023-05-05T03:41:23.909Z,94051.35
2023-05-05T03:41:57.638Z,94050.10
2023-05-05T03:42:31.589Z,94050.38
2023-05-05T03:43:05.033Z,94052.98
2023-05-05T03:43:39.564Z,94052.27
2023-05-05T03:44:13.024Z,94050.73
2023-05-05T03:44:46.265Z,94048.77
2023-05-05T03:45:19.846Z,94049.30
2023-05-05T03:45:53.823Z,94050.42
2023-05-05T03:46:27.051Z,94051.83
2023-05-05T03:47:00.514Z,94048.79
2023-05-05T03:47:34.345Z,94049.20
2023-05-05T03:48:09.897Z,94048.88
2023-05-05T03:48:43.976Z,94046.75
2023-05-05T03:49:17.985Z,94047.48
2023-05-05T03:49:52.682Z,94048.36
2023-05-05T03:50:26.156Z,94051.00
2023-05-05T03:50:59.942Z,94048.00
2023-05-05T03:51:33.614Z,94048.66
2023-05-05T03:52:06.801Z,94051.79
2023-05-05T03:52:40.231Z,94049.18
2023-05-05T03:53:13.464Z,94047.98
2023-05-05T03:53:47.728Z,94049.98
2023-05-05T03:54:21.474Z,94051.73
2023-05-05T03:54:54.877Z,94051.73
2023-05-05T03:55:28.152Z,94052.38
2023-05-05T03:56:01.588Z,94051.08
2023-05-05T03:56:35.045Z,94054.66
2023-05-05T03:57:08.266Z,94057.47
2023-05-05T03:57:41.523Z,94042.39
2023-05-05T03:58:14.686Z,94054.42
2023-05-05T03:58:48.667Z,94055.70
2023-05-05T03:59:22.062Z,94056.15
2023-05-05T03:59:55.979Z,94056.44
2023-05-05T04:00:29.326Z,94055.18
2023-05-05T04:01:02.575Z,94058.84
2023-05-05T04:01:36.104Z,94058.63
2023-05-05T04:02:09.459Z,94057.84
2023-05-05T04:02:43.853Z,94057.35
2023-05-05T04:03:18.246Z,94054.83
2023-05-05T04:03:54.194Z,94057.71
2023-05-05T04:04:27.784Z,94056.55
2023-05-05T04:05:01.439Z,94060.99
2023-05-05T04:05:35.277Z,94061.86
2023-05-05T04:06:09.152Z,94057.21
2023-05-05T04:06:42.403Z,94061.89
2023-05-05T04:07:15.889Z,94059.98
2023-05-05T04:07:50.180Z,94062.73
2023-05-05T04:08:23.406Z,94063.83
2023-05-05T04:08:56.919Z,94065.06
2023-05-05T04:09:31.827Z,94063.05
2023-05-05T04:10:06.051Z,94064.38
2023-05-05T04:10:39.757Z,94061.94
2023-05-05T04:11:13.337Z,94062.55
2023-05-05T04:11:46.685Z,94062.77
2023-05-05T04:12:20.179Z,94057.88
2023-05-05T04:12:53.394Z,94061.70
2023-05-05T04:13:26.643Z,94061.77
2023-05-05T04:14:01.019Z,94065.20
2023-05-05T04:14:34.773Z,94062.88
2023-05-05T04:15:10.325Z,94062.75
2023-05-05T04:15:46.717Z,94066.52
2023-05-05T04:16:20.854Z,94067.24
2023-05-05T04:16:54.239Z,94065.89
2023-05-05T04:17:27.481Z,94052.73
2023-05-05T04:18:01.038Z,94064.92
2023-05-05T04:18:34.715Z,94064.66
2023-05-05T04:19:08.475Z,94061.66
2023-05-05T04:19:41.999Z,94063.67
2023-05-05T04:20:15.412Z,94064.90
2023-05-05T04:20:48.768Z,94063.15
2023-05-05T04:21:22.816Z,94063.27
2023-05-05T04:21:56.288Z,94064.56
2023-05-05T04:22:29.611Z,94063.60
2023-05-05T04:23:03.002Z,94063.77
2023-05-05T04:23:36.459Z,94065.16
2023-05-05T04:24:10.010Z,94063.91
2023-05-05T04:24:43.460Z,94066.06
2023-05-05T04:25:16.788Z,94063.98
2023-05-05T04:25:50.370Z,94060.95
2023-05-05T04:26:23.693Z,94064.52
2023-05-05T04:26:58.037Z,94062.91
2023-05-05T04:27:31.585Z,94064.83
2023-05-05T04:28:05.534Z,94066.59
2023-05-05T04:28:39.031Z,94062.80
2023-05-05T04:29:12.421Z,94063.73
2023-05-05T04:29:46.014Z,94063.41
2023-05-05T04:30:19.521Z,94051.05
2023-05-05T04:30:52.889Z,94060.89
2023-05-05T04:31:26.420Z,94060.95
2023-05-05T04:31:59.837Z,94061.53
2023-05-05T04:32:33.566Z,94060.92
2023-05-05T04:33:06.882Z,94058.99
2023-05-05T04:33:40.513Z,94061.77
2023-05-05T04:34:13.874Z,94063.34
2023-05-05T04:34:47.272Z,94062.59
2023-05-05T04:35:20.618Z,94064.51
2023-05-05T04:35:54.156Z,94067.48
2023-05-05T04:36:27.664Z,94068.61
2023-05-05T04:37:01.212Z,94067.88
2023-05-05T04:37:35.189Z,94069.57
2023-05-05T04:38:08.448Z,94072.05
2023-05-05T04:38:41.804Z,94071.81
2023-05-05T04:39:15.191Z,94073.98
2023-05-05T04:39:48.587Z,94073.90
2023-05-05T04:40:22.009Z,94071.06
2023-05-05T04:40:55.482Z,94076.98
2023-05-05T04:41:30.108Z,94074.59
2023-05-05T04:42:04.143Z,94074.82
2023-05-05T04:42:37.862Z,94077.25
2023-05-05T04:43:11.169Z,94084.42
2023-05-05T04:43:44.868Z,94080.10
2023-05-05T04:44:18.498Z,94082.16
2023-05-05T04:44:51.953Z,94080.64
2023-05-05T04:45:25.330Z,94081.11
2023-05-05T04:45:58.846Z,94084.11
2023-05-05T04:46:35.100Z,94082.10
2023-05-05T04:47:08.481Z,94082.68
2023-05-05T04:47:42.313Z,94082.17
2023-05-05T04:48:15.786Z,94084.00
2023-05-05T04:48:49.107Z,94085.52
2023-05-05T04:49:22.231Z,94082.05
2023-05-05T04:49:56.253Z,94086.86
2023-05-05T04:50:29.743Z,94080.45
2023-05-05T04:51:07.120Z,94084.66
2023-05-05T04:51:43.563Z,94084.14
2023-05-05T04:52:16.967Z,94083.09
2023-05-05T04:52:52.503Z,94084.34
2023-05-05T04:53:26.144Z,94084.34
2023-05-05T04:53:59.399Z,94085.52
2023-05-05T04:54:35.814Z,94087.00
2023-05-05T04:55:10.787Z,94087.11
2023-05-05T04:55:44.121Z,94082.94
2023-05-05T04:56:17.358Z,94086.64
2023-05-05T04:56:51.136Z,94089.49
2023-05-05T04:57:24.513Z,94086.80
2023-05-05T04:57:58.771Z,94088.33
2023-05-05T04:58:32.279Z,94086.40
2023-05-05T04:59:05.606Z,94085.80
2023-05-05T04:59:39.165Z,94086.68
2023-05-05T05:00:13.227Z,94086.09
2023-05-05T05:00:46.528Z,94088.52
2023-05-05T05:01:19.830Z,94086.33
2023-05-05T05:01:53.104Z,94091.01
2023-05-05T05:02:27.260Z,94089.42
2023-05-05T05:03:00.684Z,94091.44
2023-05-05T05:03:37.996Z,94092.39
2023-05-05T05:04:11.381Z,94095.94
2023-05-05T05:04:44.596Z,94093.48
2023-05-05T05:05:20.282Z,94095.85
2023-05-05T05:05:53.512Z,94095.23
2023-05-05T05:06:27.415Z,94099.42
2023-05-05T05:07:01.735Z,94096.36
2023-05-05T05:07:35.184Z,94095.70
2023-05-05T05:08:08.641Z,94097.61
2023-05-05T05:08:41.876Z,94097.28
2023-05-05T05:09:15.299Z,94100.77
2023-05-05T05:09:48.580Z,94100.20
2023-05-05T05:10:23.462Z,94105.54
2023-05-05T05:10:56.792Z,94098.33
2023-05-05T05:11:30.175Z,94102.29
2023-05-05T05:12:04.051Z,94104.29
2023-05-05T05:12:37.724Z,94101.04
2023-05-05T05:13:12.969Z,94099.00
2023-05-05T05:13:46.498Z,94104.25
2023-05-05T05:14:19.770Z,94104.51
2023-05-05T05:14:53.273Z,94107.70
2023-05-05T05:15:26.925Z,94107.05
2023-05-05T05:16:01.419Z,94108.48
2023-05-05T05:16:34.957Z,94110.64
2023-05-05T05:17:08.232Z,94112.05
2023-05-05T05:17:41.675Z,94109.23
2023-05-05T05:18:15.188Z,94107.90
2023-05-05T05:18:48.527Z,94106.64
2023-05-05T05:19:22.179Z,94104.58
2023-05-05T05:19:56.498Z,94107.27
2023-05-05T05:20:33.640Z,94105.98
2023-05-05T05:21:07.717Z,94108.26
2023-05-05T05:21:41.207Z,94107.14
2023-05-05T05:22:17.848Z,94106.79
2023-05-05T05:22:54.882Z,94107.23
2023-05-05T05:23:28.348Z,94105.44
2023-05-05T05:24:01.826Z,94104.79
2023-05-05T05:24:36.238Z,94104.73
2023-05-05T05:25:09.668Z,94106.38
2023-05-05T05:25:43.574Z,94105.45
2023-05-05T05:26:17.822Z,94107.27
2023-05-05T05:26:52.002Z,94106.98
2023-05-05T05:27:25.469Z,94104.31
2023-05-05T05:28:09.354Z,94106.79
2023-05-05T05:28:46.012Z,94110.06
2023-05-05T05:29:20.621Z,94113.51
2023-05-05T05:29:54.002Z,94112.85
2023-05-05T05:30:27.514Z,94111.31
2023-05-05T05:31:30.657Z,94105.91
2023-05-05T05:32:27.897Z,94105.23
2023-05-05T05:33:10.230Z,94107.79
2023-05-05T05:33:44.037Z,94109.70
2023-05-05T05:34:17.636Z,94112.02
2023-05-05T05:34:51.214Z,94109.39
2023-05-05T05:35:24.473Z,94108.44
2023-05-05T05:35:57.842Z,94111.98
2023-05-05T05:36:32.053Z,94114.02
2023-05-05T05:37:05.469Z,94115.56
2023-05-05T05:37:38.952Z,94115.41
2023-05-05T05:38:13.000Z,94115.39
2023-05-05T05:38:46.409Z,94113.48
2023-05-05T05:39:19.802Z,94115.12
2023-05-05T05:39:53.764Z,94116.27
2023-05-05T05:40:27.386Z,94112.65
2023-05-05T05:41:06.496Z,94114.23
2023-05-05T05:41:39.912Z,94117.36
2023-05-05T05:42:13.540Z,94117.14
2023-05-05T05:42:46.876Z,94116.77
2023-05-05T05:43:20.549Z,94113.17
2023-05-05T05:43:53.922Z,94118.84
2023-05-05T05:44:27.204Z,94117.23
2023-05-05T05:45:00.664Z,94117.39
2023-05-05T05:45:34.187Z,94116.42
2023-05-05T05:46:09.163Z,94118.24
2023-05-05T05:46:43.500Z,94120.52
2023-05-05T05:47:19.632Z,94115.24
2023-05-05T05:47:55.928Z,94116.85
2023-05-05T05:48:29.706Z,94111.64
2023-05-05T05:49:03.210Z,94113.85
2023-05-05T05:49:37.232Z,94113.02
2023-05-05T05:50:11.321Z,94112.95
2023-05-05T05:50:44.717Z,94113.71
2023-05-05T05:51:18.157Z,94115.44
2023-05-05T05:51:51.702Z,94113.42
2023-05-05T05:52:25.156Z,94113.09
2023-05-05T05:52:58.569Z,94112.28
2023-05-05T05:53:32.118Z,94110.88
2023-05-05T05:54:05.571Z,94113.50
2023-05-05T05:54:38.866Z,94110.16
2023-05-05T05:55:12.352Z,94106.71
2023-05-05T05:55:47.188Z,94104.78
2023-05-05T05:56:20.568Z,94103.55
2023-05-05T05:56:53.890Z,94105.35
2023-05-05T05:57:28.149Z,94101.86
2023-05-05T05:58:03.346Z,94099.82
2023-05-05T05:58:37.381Z,94103.73
2023-05-05T05:59:10.918Z,94103.86
2023-05-05T05:59:44.990Z,94101.06
2023-05-05T06:00:18.640Z,94103.64
2023-05-05T06:00:53.079Z,94104.05
2023-05-05T06:01:27.601Z,94103.42
2023-05-05T06:02:01.708Z,94102.60
2023-05-05T06:02:35.595Z,94103.89
2023-05-05T06:03:09.048Z,94107.19
2023-05-05T06:03:43.941Z,94106.05
2023-05-05T06:04:17.396Z,94105.39
2023-05-05T06:04:50.902Z,94103.11
2023-05-05T06:05:24.199Z,94108.31
2023-05-05T06:05:59.195Z,94109.21
2023-05-05T06:06:32.545Z,94109.06
2023-05-05T06:07:06.887Z,94106.60
2023-05-05T06:07:42.646Z,94106.85
2023-05-05T06:08:16.215Z,94110.05
2023-05-05T06:08:52.198Z,94108.21
2023-05-05T06:09:25.495Z,94106.11
2023-05-05T06:10:01.385Z,94106.13
2023-05-05T06:10:42.180Z,94107.56
2023-05-05T06:11:18.596Z,94103.64
2023-05-05T06:11:52.398Z,94107.47
2023-05-05T06:12:25.720Z,94103.54
2023-05-05T06:12:59.048Z,94103.37
2023-05-05T06:13:32.519Z,94103.96
2023-05-05T06:14:05.844Z,94099.98
2023-05-05T06:14:39.789Z,94100.41
2023-05-05T06:15:13.288Z,94103.49
2023-05-05T06:15:46.655Z,94100.40
2023-05-05T06:16:20.092Z,94105.22
2023-05-05T06:16:53.897Z,94101.65
2023-05-05T06:17:28.253Z,94102.38
2023-05-05T06:18:02.829Z,94103.21
2023-05-05T06:18:36.414Z,94101.20
2023-05-05T06:19:10.885Z,94102.79
2023-05-05T06:19:44.328Z,94100.63
2023-05-05T06:20:17.685Z,94106.17
2023-05-05T06:20:51.653Z,94104.14
2023-05-05T06:21:25.740Z,94102.46
2023-05-05T06:21:59.094Z,94102.06
2023-05-05T06:22:32.928Z,94101.51
2023-05-05T06:23:06.972Z,94103.08
2023-05-05T06:23:42.521Z,94102.13
2023-05-05T06:24:17.039Z,94103.73
2023-05-05T06:24:50.479Z,94101.41
2023-05-05T06:25:23.995Z,94101.42
2023-05-05T06:25:57.622Z,94103.30
2023-05-05T06:26:31.695Z,94096.72
2023-05-05T06:27:05.784Z,94103.23
2023-05-05T06:27:38.949Z,94100.11
2023-05-05T06:28:12.239Z,94102.08
2023-05-05T06:28:45.734Z,94105.10
2023-05-05T06:29:18.958Z,94104.26
2023-05-05T06:29:52.196Z,94105.27
2023-05-05T06:30:26.382Z,94100.93
2023-05-05T06:30:59.566Z,94106.58
2023-05-05T06:31:33.008Z,94102.28
2023-05-05T06:32:08.445Z,94102.42
2023-05-05T06:32:41.694Z,94104.19
2023-05-05T06:33:15.096Z,94104.21
2023-05-05T06:33:48.285Z,94105.18
2023-05-05T06:34:21.558Z,94105.05
2023-05-05T06:34:54.804Z,94102.95
2023-05-05T06:35:28.066Z,94089.38
2023-05-05T06:36:01.486Z,94099.20
2023-05-05T06:36:34.833Z,94095.08
2023-05-05T06:37:08.106Z,94096.28
2023-05-05T06:37:41.431Z,94097.23
2023-05-05T06:38:14.865Z,94091.41
2023-05-05T06:38:48.093Z,94095.43
2023-05-05T06:39:21.503Z,94094.01
2023-05-05T06:39:54.707Z,94092.76
2023-05-05T06:40:27.909Z,94091.80
2023-05-05T06:41:01.665Z,94091.00
2023-05-05T06:41:35.338Z,94090.92
2023-05-05T06:42:08.768Z,94088.94
2023-05-05T06:42:42.159Z,94090.66
2023-05-05T06:43:17.440Z,94085.78
2023-05-05T06:43:54.450Z,94082.45
2023-05-05T06:44:28.520Z,94085.30
2023-05-05T06:45:01.731Z,94080.63
2023-05-05T06:45:35.216Z,94079.65
2023-05-05T06:46:08.634Z,94082.43
2023-05-05T06:46:43.974Z,94081.49
2023-05-05T06:47:17.416Z,94082.08
2023-05-05T06:47:50.905Z,94081.25
2023-05-05T06:48:24.259Z,94083.27
2023-05-05T06:48:57.592Z,94084.63
2023-05-05T06:49:31.503Z,94081.37
2023-05-05T06:50:05.829Z,94082.92
2023-05-05T06:50:39.216Z,94082.46
2023-05-05T06:51:12.710Z,94078.39
2023-05-05T06:51:45.969Z,94080.05
2023-05-05T06:52:19.333Z,94084.11
2023-05-05T06:52:53.393Z,94081.18
2023-05-05T06:53:26.686Z,94080.63
2023-05-05T06:53:59.959Z,94076.48
2023-05-05T06:54:33.260Z,94075.88
2023-05-05T06:55:07.314Z,94071.98
2023-05-05T06:55:44.798Z,94074.33
2023-05-05T06:56:18.311Z,94071.84
2023-05-05T06:56:51.687Z,94070.80
2023-05-05T06:57:24.980Z,94071.89
2023-05-05T06:57:58.327Z,94074.73
2023-05-05T06:58:31.986Z,94073.65
2023-05-05T06:59:05.251Z,94078.23
2023-05-05T06:59:38.424Z,94075.66
2023-05-05T07:00:12.401Z,94075.92
2023-05-05T07:00:45.700Z,94076.23
2023-05-05T07:01:19.358Z,94074.21
2023-05-05T07:01:52.718Z,94074.02
2023-05-05T07:02:26.977Z,94070.29
2023-05-05T07:03:00.545Z,94071.91
2023-05-05T07:03:34.128Z,94072.83
2023-05-05T07:04:07.527Z,94073.23
2023-05-05T07:04:41.777Z,94073.13
2023-05-05T07:05:15.212Z,94074.32
2023-05-05T07:05:48.565Z,94074.23
2023-05-05T07:06:21.968Z,94072.02
2023-05-05T07:06:55.487Z,94072.20
2023-05-05T07:07:28.800Z,94069.68
2023-05-05T07:08:02.137Z,94070.55
2023-05-05T07:08:35.702Z,94071.89
2023-05-05T07:09:08.922Z,94071.93
2023-05-05T07:09:42.327Z,94073.42
2023-05-05T07:10:15.514Z,94069.55